Time;durP1;ratioP1;P1;durP2;ratioP2;P2;SDS_P1;SDS_P2;PMS_P1;PMS_P2;Temp;Humidity;BMP_temperature;BMP_pressure;BME280_temperature;BME280_humidity;BME280_pressure;Samples;Min_cycle;Max_cycle;Signal;HPM_P1;HPM_P2
2022/05/25 00:03:40;;;;;;;1.73;1.53;;;;;;;;;;10452291;28;20361;-73
2022/05/25 00:08:41;;;;;;;1.93;1.80;;;;;;;;;;10449515;28;20862;-70
2022/05/25 00:13:41;;;;;;;2.33;1.70;;;;;;;;;;10464967;28;20291;-72
2022/05/25 00:19:58;;;;;;;2.77;1.83;;;;;;;;;;10469503;28;20052;-70
2022/05/25 00:24:02;;;;;;;3.38;1.85;;;;;;;;;;10478081;28;20279;-71
2022/05/25 00:29:02;;;;;;;1.70;1.60;;;;;;;;;;10445579;28;20490;-71
2022/05/25 00:34:03;;;;;;;1.80;1.70;;;;;;;;;;10459439;28;20036;-72
2022/05/25 00:39:04;;;;;;;1.73;1.57;;;;;;;;;;10418457;28;20051;-71
2022/05/25 00:44:05;;;;;;;2.63;1.83;;;;;;;;;;10463540;28;20294;-72
2022/05/25 00:49:21;;;;;;;2.33;1.70;;;;;;;;;;10478282;28;20537;-72
2022/05/25 00:54:27;;;;;;;1.77;1.63;;;;;;;;;;10444980;28;20430;-73
2022/05/25 00:59:29;;;;;;;2.83;2.00;;;;;;;;;;10464547;28;20045;-73
2022/05/25 01:04:29;;;;;;;1.80;1.70;;;;;;;;;;10469031;28;20090;-73
2022/05/25 01:09:48;;;;;;;1.40;1.30;;;;;;;;;;10456272;28;20114;-73
2022/05/25 01:14:54;;;;;;;1.70;1.60;;;;;;;;;;10467468;28;20044;-73
2022/05/25 01:20:01;;;;;;;1.80;1.70;;;;;;;;;;10468051;28;20498;-73
2022/05/25 01:25:12;;;;;;;2.75;1.80;;;;;;;;;;10442722;28;20041;-73
2022/05/25 01:30:17;;;;;;;2.22;2.00;;;;;;;;;;10447194;28;20124;-71
2022/05/25 01:35:23;;;;;;;2.03;1.90;;;;;;;;;;10448623;28;20423;-72
2022/05/25 01:40:23;;;;;;;2.40;2.00;;;;;;;;;;10430269;28;22564;-73
2022/05/25 01:45:25;;;;;;;2.07;1.87;;;;;;;;;;10472592;28;20488;-74
2022/05/25 01:50:30;;;;;;;3.07;1.73;;;;;;;;;;10461286;28;20040;-74
2022/05/25 01:55:33;;;;;;;3.67;1.92;;;;;;;;;;10445967;28;20140;-73
2022/05/25 02:00:35;;;;;;;1.80;1.58;;;;;;;;;;10460256;28;20056;-73
2022/05/25 02:05:36;;;;;;;3.42;2.08;;;;;;;;;;10440564;28;20049;-73
2022/05/25 02:10:55;;;;;;;2.22;2.03;;;;;;;;;;10485993;28;20114;-74
2022/05/25 02:16:04;;;;;;;2.42;2.00;;;;;;;;;;10484440;28;20075;-75
2022/05/25 02:21:09;;;;;;;2.33;1.98;;;;;;;;;;10418269;28;20050;-75
2022/05/25 02:26:16;;;;;;;2.33;2.10;;;;;;;;;;10448629;28;20041;-76
2022/05/25 02:31:20;;;;;;;2.25;2.08;;;;;;;;;;10452056;28;20045;-75
2022/05/25 02:36:20;;;;;;;2.30;2.10;;;;;;;;;;10446468;28;20091;-74
2022/05/25 02:41:32;;;;;;;2.05;1.85;;;;;;;;;;10464990;28;20055;-74
2022/05/25 02:46:32;;;;;;;2.10;1.80;;;;;;;;;;10467272;28;20036;-74
2022/05/25 02:51:32;;;;;;;2.30;2.10;;;;;;;;;;10483018;28;20440;-75
2022/05/25 02:56:34;;;;;;;2.15;1.95;;;;;;;;;;10454245;28;20654;-75
2022/05/25 03:01:34;;;;;;;1.95;1.80;;;;;;;;;;10429562;28;20049;-75
2022/05/25 03:06:35;;;;;;;2.00;1.80;;;;;;;;;;10480480;28;20045;-75
2022/05/25 03:11:35;;;;;;;2.47;2.00;;;;;;;;;;10463182;28;20158;-75
2022/05/25 03:16:35;;;;;;;2.40;2.20;;;;;;;;;;10462394;28;20290;-75
2022/05/25 03:21:36;;;;;;;2.30;2.10;;;;;;;;;;10466491;28;20159;-74
2022/05/25 03:26:37;;;;;;;2.97;1.98;;;;;;;;;;10466778;28;20066;-74
2022/05/25 03:31:37;;;;;;;5.53;2.30;;;;;;;;;;10475158;28;20125;-74
2022/05/25 03:36:37;;;;;;;2.23;2.03;;;;;;;;;;10456186;28;20040;-75
2022/05/25 03:41:38;;;;;;;2.70;2.30;;;;;;;;;;10458489;28;20126;-76
2022/05/25 03:46:38;;;;;;;3.08;2.20;;;;;;;;;;10431772;28;20075;-74
2022/05/25 03:51:39;;;;;;;2.30;2.10;;;;;;;;;;10458428;28;20112;-75
2022/05/25 03:56:39;;;;;;;2.73;2.17;;;;;;;;;;10478247;28;20037;-75
2022/05/25 04:01:39;;;;;;;2.33;2.13;;;;;;;;;;10464146;28;20314;-75
2022/05/25 04:06:40;;;;;;;3.13;2.10;;;;;;;;;;10462677;28;20287;-75
2022/05/25 04:11:41;;;;;;;2.13;1.83;;;;;;;;;;10446289;28;20104;-75
2022/05/25 04:16:43;;;;;;;2.45;1.80;;;;;;;;;;10466506;28;20080;-74
2022/05/25 04:21:44;;;;;;;2.40;2.20;;;;;;;;;;10455915;28;20079;-75
2022/05/25 04:26:47;;;;;;;4.18;2.25;;;;;;;;;;10421512;28;20064;-73
2022/05/25 04:31:47;;;;;;;3.28;2.58;;;;;;;;;;10468382;28;20060;-74
2022/05/25 04:36:48;;;;;;;3.53;2.60;;;;;;;;;;10466139;28;20051;-76
2022/05/25 04:41:48;;;;;;;3.67;2.47;;;;;;;;;;10443225;28;20053;-75
2022/05/25 04:46:49;;;;;;;3.22;2.58;;;;;;;;;;10471627;28;20041;-77
2022/05/25 04:51:51;;;;;;;5.55;2.55;;;;;;;;;;10474525;28;20044;-75
2022/05/25 05:02:10;;;;;;;3.67;2.20;;;;;;;;;;10466402;28;20126;-75
2022/05/25 05:07:11;;;;;;;3.63;3.10;;;;;;;;;;10472509;28;20094;-75
2022/05/25 05:12:14;;;;;;;5.80;3.58;;;;;;;;;;10475019;28;20091;-74
2022/05/25 05:17:14;;;;;;;3.77;3.30;;;;;;;;;;10475022;28;20057;-75
2022/05/25 05:22:47;;;;;;;3.00;2.60;;;;;;;;;;10431361;28;20049;-76
2022/05/25 05:27:48;;;;;;;3.58;3.28;;;;;;;;;;10475923;28;20032;-76
2022/05/25 05:32:49;;;;;;;3.20;2.90;;;;;;;;;;10462105;28;20071;-75
2022/05/25 05:37:51;;;;;;;4.93;3.47;;;;;;;;;;10462453;28;20590;-75
2022/05/25 05:42:52;;;;;;;;;;;;;;;;;;10470876;28;20040;-77
2022/05/25 05:47:59;;;;;;;3.92;2.90;;;;;;;;;;10473028;28;19917;-79
2022/05/25 05:53:08;;;;;;;4.47;2.97;;;;;;;;;;10478061;28;20044;-76
2022/05/25 05:58:08;;;;;;;4.65;3.17;;;;;;;;;;10455719;28;20055;-75
2022/05/25 06:03:09;;;;;;;4.53;3.13;;;;;;;;;;10454778;28;20052;-77
2022/05/25 06:08:11;;;;;;;3.33;2.70;;;;;;;;;;10473666;28;20048;-77
2022/05/25 06:13:11;;;;;;;3.70;2.50;;;;;;;;;;10472630;28;20063;-76
2022/05/25 06:23:30;;;;;;;2.88;2.60;;;;;;;;;;10442693;28;20275;-75
2022/05/25 06:28:31;;;;;;;2.40;2.20;;;;;;;;;;10429552;28;20476;-75
2022/05/25 06:33:31;;;;;;;2.53;2.33;;;;;;;;;;10473490;28;20946;-74
2022/05/25 06:38:32;;;;;;;5.43;2.60;;;;;;;;;;10480759;28;20360;-73
2022/05/25 06:43:32;;;;;;;3.20;2.60;;;;;;;;;;10492732;28;20059;-76
2022/05/25 06:48:32;;;;;;;3.42;2.80;;;;;;;;;;10481563;28;20039;-75
2022/05/25 06:53:33;;;;;;;3.35;2.17;;;;;;;;;;10478505;28;20056;-76
2022/05/25 06:58:33;;;;;;;3.33;2.80;;;;;;;;;;10449297;28;20056;-71
2022/05/25 07:03:34;;;;;;;3.25;2.95;;;;;;;;;;10457930;28;20303;-70
2022/05/25 07:08:34;;;;;;;3.60;3.30;;;;;;;;;;10469383;28;20044;-70
2022/05/25 07:13:35;;;;;;;2.58;2.35;;;;;;;;;;10459690;28;20052;-68
2022/05/25 07:18:35;;;;;;;3.33;2.50;;;;;;;;;;10466644;28;20053;-69
2022/05/25 07:23:36;;;;;;;3.65;2.20;;;;;;;;;;10459768;28;20761;-70
2022/05/25 07:28:37;;;;;;;4.10;2.58;;;;;;;;;;10441191;28;20470;-68
2022/05/25 07:33:40;;;;;;;2.67;2.20;;;;;;;;;;10481600;28;20074;-71
2022/05/25 07:38:43;;;;;;;3.42;2.88;;;;;;;;;;10492544;28;20109;-74
2022/05/25 07:43:44;;;;;;;3.15;2.85;;;;;;;;;;10496062;28;20045;-76
2022/05/25 07:48:44;;;;;;;3.45;2.33;;;;;;;;;;10506843;28;20036;-76
2022/05/25 07:53:57;;;;;;;2.43;1.80;;;;;;;;;;10514744;28;20119;-76
2022/05/25 07:59:01;;;;;;;2.33;1.63;;;;;;;;;;10452898;28;20075;-74
2022/05/25 08:09:20;;;;;;;2.42;1.60;;;;;;;;;;10469170;28;20391;-77
2022/05/25 08:14:22;;;;;;;3.10;1.40;;;;;;;;;;10467684;28;20050;-75
2022/05/25 08:19:23;;;;;;;4.80;1.80;;;;;;;;;;10465470;28;20287;-77
2022/05/25 08:24:24;;;;;;;1.73;1.38;;;;;;;;;;10477056;28;20124;-77
2022/05/25 08:29:25;;;;;;;2.10;1.70;;;;;;;;;;10476646;28;20036;-76
2022/05/25 08:34:27;;;;;;;2.00;1.40;;;;;;;;;;10468730;28;20052;-75
2022/05/25 08:39:29;;;;;;;2.17;1.33;;;;;;;;;;10439255;28;20112;-76
2022/05/25 08:44:30;;;;;;;2.85;1.40;;;;;;;;;;10473077;28;20048;-77
2022/05/25 08:49:32;;;;;;;1.97;1.33;;;;;;;;;;10477392;28;20045;-75
2022/05/25 08:54:36;;;;;;;1.45;1.20;;;;;;;;;;10467013;28;20040;-76
2022/05/25 08:59:49;;;;;;;2.33;1.48;;;;;;;;;;10479560;28;20063;-75
2022/05/25 09:05:00;;;;;;;4.07;2.72;;;;;;;;;;10439829;28;20049;-76
2022/05/25 09:10:01;;;;;;;3.08;1.73;;;;;;;;;;10475818;28;20144;-76
2022/05/25 09:15:10;;;;;;;2.28;1.70;;;;;;;;;;10476862;28;20036;-75
2022/05/25 09:20:14;;;;;;;2.08;1.10;;;;;;;;;;10473091;28;20049;-75
2022/05/25 09:25:15;;;;;;;2.28;1.23;;;;;;;;;;10469167;28;20049;-74
2022/05/25 09:30:15;;;;;;;2.00;1.45;;;;;;;;;;10460974;28;20390;-74
2022/05/25 09:35:16;;;;;;;3.73;2.00;;;;;;;;;;10475473;28;20037;-72
2022/05/25 09:40:31;;;;;;;2.50;1.07;;;;;;;;;;10473224;28;20302;-73
2022/05/25 09:45:41;;;;;;;1.98;1.50;;;;;;;;;;10446571;28;20048;-73
2022/05/25 09:50:43;;;;;;;2.78;1.20;;;;;;;;;;10457230;28;20052;-73
2022/05/25 09:55:51;;;;;;;14.20;11.43;;;;;;;;;;10481532;28;20048;-73
2022/05/25 10:01:19;;;;;;;2.33;1.20;;;;;;;;;;10475480;28;20632;-75
2022/05/25 10:06:24;;;;;;;4.43;1.92;;;;;;;;;;10462396;28;20126;-71
2022/05/25 10:11:29;;;;;;;1.95;1.10;;;;;;;;;;10463775;28;20055;-74
2022/05/25 10:16:30;;;;;;;2.53;1.40;;;;;;;;;;10444348;28;20071;-73
2022/05/25 10:21:37;;;;;;;5.28;1.60;;;;;;;;;;10440864;28;20498;-74
2022/05/25 10:26:38;;;;;;;1.98;1.45;;;;;;;;;;10448826;28;20476;-74
2022/05/25 10:37:07;;;;;;;2.53;1.25;;;;;;;;;;10459247;28;20182;-74
2022/05/25 10:42:29;;;;;;;1.85;0.98;;;;;;;;;;10467315;28;20464;-73
2022/05/25 10:47:48;;;;;;;1.25;0.82;;;;;;;;;;10426253;28;20151;-74
2022/05/25 10:52:55;;;;;;;3.40;1.13;;;;;;;;;;10454805;28;20559;-72
2022/05/25 10:58:14;;;;;;;3.38;1.30;;;;;;;;;;10424055;28;20105;-73
2022/05/25 11:03:34;;;;;;;2.20;1.60;;;;;;;;;;10448540;28;20096;-73
2022/05/25 11:08:46;;;;;;;1.92;0.88;;;;;;;;;;10467442;28;20073;-73
2022/05/25 11:13:55;;;;;;;1.33;0.97;;;;;;;;;;10464107;28;20056;-73
2022/05/25 11:18:55;;;;;;;2.42;1.20;;;;;;;;;;10473881;28;20083;-73
2022/05/25 11:24:05;;;;;;;1.87;0.90;;;;;;;;;;10467872;28;20497;-74
2022/05/25 11:29:18;;;;;;;2.33;1.63;;;;;;;;;;10443958;28;20451;-74
2022/05/25 11:34:22;;;;;;;1.25;0.90;;;;;;;;;;10459391;28;20090;-73
2022/05/25 11:39:42;;;;;;;1.55;0.90;;;;;;;;;;10445467;28;20056;-74
2022/05/25 11:44:46;;;;;;;3.17;1.85;;;;;;;;;;10453591;28;20136;-74
2022/05/25 11:49:50;;;;;;;2.28;1.70;;;;;;;;;;10469372;28;20048;-74
2022/05/25 11:55:09;;;;;;;2.38;1.25;;;;;;;;;;10445371;28;20049;-73
2022/05/25 12:00:18;;;;;;;3.22;1.70;;;;;;;;;;10457540;28;20059;-73
2022/05/25 12:05:25;;;;;;;2.65;1.98;;;;;;;;;;10468658;28;20108;-73
2022/05/25 12:10:28;;;;;;;0.85;0.80;;;;;;;;;;10453776;28;20048;-73
2022/05/25 12:15:34;;;;;;;2.95;0.90;;;;;;;;;;10468925;28;20428;-74
2022/05/25 12:20:38;;;;;;;1.58;0.90;;;;;;;;;;10458736;28;20229;-72
2022/05/25 12:25:42;;;;;;;0.85;0.80;;;;;;;;;;10462244;28;20051;-74
2022/05/25 12:30:46;;;;;;;2.35;0.98;;;;;;;;;;10447293;28;20085;-73
2022/05/25 12:35:46;;;;;;;1.20;0.90;;;;;;;;;;10467780;28;20135;-72
2022/05/25 12:40:47;;;;;;;1.27;0.95;;;;;;;;;;10447090;28;20060;-72
2022/05/25 12:51:26;;;;;;;2.35;0.90;;;;;;;;;;10451213;28;20064;-73
2022/05/25 12:56:26;;;;;;;1.60;0.80;;;;;;;;;;10443983;28;20118;-74
2022/05/25 13:01:31;;;;;;;1.70;0.82;;;;;;;;;;10457138;28;20178;-73
2022/05/25 13:06:35;;;;;;;1.38;0.80;;;;;;;;;;10456701;28;20047;-72
2022/05/25 13:11:37;;;;;;;2.33;0.98;;;;;;;;;;10465897;28;20056;-72
2022/05/25 13:16:41;;;;;;;3.03;1.17;;;;;;;;;;10450329;28;20040;-72
2022/05/25 13:21:42;;;;;;;2.83;0.80;;;;;;;;;;10465851;28;20090;-74
2022/05/25 13:27:03;;;;;;;1.35;1.25;;;;;;;;;;10464248;28;20395;-73
2022/05/25 13:32:13;;;;;;;0.90;0.77;;;;;;;;;;10413885;28;20045;-73
2022/05/25 13:37:14;;;;;;;1.33;0.95;;;;;;;;;;10461374;28;20041;-74
2022/05/25 13:42:18;;;;;;;2.27;1.80;;;;;;;;;;10466617;28;20056;-72
2022/05/25 13:47:22;;;;;;;1.20;0.90;;;;;;;;;;10442787;28;20032;-71
2022/05/25 13:52:31;;;;;;;1.83;1.10;;;;;;;;;;10466679;28;20131;-72
2022/05/25 13:57:38;;;;;;;0.73;0.70;;;;;;;;;;10465568;28;20083;-73
2022/05/25 14:02:42;;;;;;;1.30;0.88;;;;;;;;;;10458608;28;20056;-72
2022/05/25 14:07:45;;;;;;;2.47;1.08;;;;;;;;;;10469900;28;20095;-73
2022/05/25 14:12:45;;;;;;;0.93;0.73;;;;;;;;;;10444334;28;20072;-72
2022/05/25 14:17:55;;;;;;;13.03;8.90;;;;;;;;;;10447918;28;20052;-72
2022/05/25 14:22:56;;;;;;;1.30;0.93;;;;;;;;;;10478470;28;20294;-72
2022/05/25 14:27:56;;;;;;;3.13;0.83;;;;;;;;;;10470966;28;20043;-74
2022/05/25 14:32:59;;;;;;;1.10;0.80;;;;;;;;;;10455273;28;20267;-72
2022/05/25 14:38:03;;;;;;;1.98;0.70;;;;;;;;;;10466175;28;20055;-73
2022/05/25 14:43:04;;;;;;;1.60;0.68;;;;;;;;;;10458845;28;20229;-73
2022/05/25 14:48:06;;;;;;;2.28;1.00;;;;;;;;;;10464964;28;20190;-72
2022/05/25 14:53:12;;;;;;;0.80;0.60;;;;;;;;;;10462336;28;20043;-73
2022/05/25 14:58:12;;;;;;;1.73;0.68;;;;;;;;;;10444182;28;20222;-74
2022/05/25 15:03:27;;;;;;;1.30;1.00;;;;;;;;;;10449954;28;20119;-74
2022/05/25 15:08:31;;;;;;;2.88;0.90;;;;;;;;;;10459753;28;20049;-75
2022/05/25 15:18:58;;;;;;;2.05;0.90;;;;;;;;;;10442723;28;20229;-74
2022/05/25 15:24:03;;;;;;;1.27;0.70;;;;;;;;;;10462209;28;20041;-73
2022/05/25 15:29:26;;;;;;;3.78;2.00;;;;;;;;;;10451291;28;20045;-72
2022/05/25 15:34:26;;;;;;;1.88;0.80;;;;;;;;;;10462462;28;20079;-74
2022/05/25 15:39:27;;;;;;;2.00;0.93;;;;;;;;;;10447868;28;20148;-74
2022/05/25 15:44:27;;;;;;;2.40;0.60;;;;;;;;;;10456648;28;20585;-73
2022/05/25 15:49:28;;;;;;;2.08;0.80;;;;;;;;;;10454852;28;20059;-74
2022/05/25 15:54:29;;;;;;;1.30;0.80;;;;;;;;;;10451464;28;20125;-74
2022/05/25 15:59:30;;;;;;;2.20;0.83;;;;;;;;;;10468186;28;20090;-74
2022/05/25 16:04:31;;;;;;;2.80;1.42;;;;;;;;;;10487664;28;20333;-75
2022/05/25 16:09:32;;;;;;;1.23;0.80;;;;;;;;;;10472529;28;20040;-76
2022/05/25 16:14:34;;;;;;;2.45;0.80;;;;;;;;;;10465997;28;20480;-72
2022/05/25 16:19:36;;;;;;;1.05;0.82;;;;;;;;;;10458586;28;20057;-73
2022/05/25 16:24:36;;;;;;;1.80;0.82;;;;;;;;;;10497702;28;20355;-74
2022/05/25 16:29:37;;;;;;;2.57;0.97;;;;;;;;;;10494531;28;20052;-73
2022/05/25 16:34:37;;;;;;;1.33;0.77;;;;;;;;;;10484169;28;20297;-70
2022/05/25 16:39:38;;;;;;;1.80;0.98;;;;;;;;;;10468856;28;20049;-74
2022/05/25 16:44:41;;;;;;;2.40;1.00;;;;;;;;;;10457848;28;20040;-72
2022/05/25 16:49:41;;;;;;;1.30;0.90;;;;;;;;;;10463111;28;20522;-73
2022/05/25 16:54:41;;;;;;;3.03;1.40;;;;;;;;;;10446550;28;20047;-72
2022/05/25 16:59:42;;;;;;;3.55;1.95;;;;;;;;;;10469711;28;20448;-73
2022/05/25 17:04:42;;;;;;;1.30;1.10;;;;;;;;;;10464669;28;20056;-73
2022/05/25 17:09:42;;;;;;;2.33;1.40;;;;;;;;;;10446451;28;20131;-72
2022/05/25 17:14:43;;;;;;;1.30;1.00;;;;;;;;;;10455267;28;20047;-75
2022/05/25 17:25:03;;;;;;;1.73;0.90;;;;;;;;;;10460377;28;20064;-73
2022/05/25 17:30:04;;;;;;;2.88;2.33;;;;;;;;;;10473550;28;20040;-72
2022/05/25 17:35:05;;;;;;;2.50;1.10;;;;;;;;;;10473280;28;20088;-71
2022/05/25 17:45:25;;;;;;;2.00;1.00;;;;;;;;;;10470121;28;20047;-75
2022/05/25 17:50:33;;;;;;;2.10;1.00;;;;;;;;;;10473977;28;20060;-74
2022/05/25 17:55:34;;;;;;;3.13;1.20;;;;;;;;;;10465768;28;20072;-72
2022/05/25 18:00:36;;;;;;;1.80;1.20;;;;;;;;;;10472774;28;20058;-71
2022/05/25 18:05:36;;;;;;;1.15;0.82;;;;;;;;;;10457624;28;20127;-73
2022/05/25 18:10:38;;;;;;;1.90;1.00;;;;;;;;;;10445577;28;20526;-70
2022/05/25 18:15:40;;;;;;;1.23;0.90;;;;;;;;;;10450088;28;20469;-73
2022/05/25 18:20:41;;;;;;;1.67;1.05;;;;;;;;;;10479554;28;20143;-73
2022/05/25 18:25:46;;;;;;;1.67;0.80;;;;;;;;;;10479017;28;20036;-73
2022/05/25 18:30:47;;;;;;;2.33;1.77;;;;;;;;;;10470339;28;20029;-74
2022/05/25 18:35:48;;;;;;;3.72;1.17;;;;;;;;;;10471929;28;20041;-73
2022/05/25 18:40:49;;;;;;;2.30;0.90;;;;;;;;;;10467558;28;20037;-73
2022/05/25 18:45:49;;;;;;;3.45;2.45;;;;;;;;;;10455839;28;20045;-74
2022/05/25 18:50:50;;;;;;;3.77;2.87;;;;;;;;;;10457798;28;20040;-72
2022/05/25 18:55:52;;;;;;;3.53;1.20;;;;;;;;;;10472501;28;20064;-72
2022/05/25 19:00:52;;;;;;;2.35;1.25;;;;;;;;;;10472345;28;20040;-72
2022/05/25 19:05:52;;;;;;;3.40;1.60;;;;;;;;;;10471711;28;20048;-73
2022/05/25 19:10:53;;;;;;;2.45;1.50;;;;;;;;;;10453467;28;20291;-73
2022/05/25 19:15:53;;;;;;;3.55;1.70;;;;;;;;;;10463718;28;20073;-73
2022/05/25 19:20:54;;;;;;;3.85;1.20;;;;;;;;;;10406457;28;20583;-74
2022/05/25 19:25:56;;;;;;;2.97;1.20;;;;;;;;;;10469210;28;20097;-75
2022/05/25 19:30:56;;;;;;;2.77;1.10;;;;;;;;;;10489394;28;20093;-74
2022/05/25 19:35:58;;;;;;;2.60;1.10;;;;;;;;;;10454802;28;20136;-70
2022/05/25 19:40:59;;;;;;;1.60;1.35;;;;;;;;;;10478395;28;20075;-71
2022/05/25 19:46:00;;;;;;;2.15;1.60;;;;;;;;;;10450912;28;20041;-75
2022/05/25 19:51:01;;;;;;;2.05;1.48;;;;;;;;;;10423162;28;20029;-75
2022/05/25 19:56:02;;;;;;;2.50;1.80;;;;;;;;;;10465437;28;20060;-74
2022/05/25 20:01:02;;;;;;;4.63;2.08;;;;;;;;;;10447165;28;20068;-76
2022/05/25 20:06:02;;;;;;;3.35;2.28;;;;;;;;;;10468686;28;20067;-75
2022/05/25 20:11:03;;;;;;;2.63;1.90;;;;;;;;;;10456087;28;20044;-72
2022/05/25 20:16:03;;;;;;;2.70;1.92;;;;;;;;;;10476937;28;20045;-71
2022/05/25 20:21:04;;;;;;;2.23;1.60;;;;;;;;;;10469126;28;20159;-75
2022/05/25 20:26:04;;;;;;;2.33;1.50;;;;;;;;;;10472665;28;20282;-75
2022/05/25 20:31:05;;;;;;;2.92;1.67;;;;;;;;;;10460904;28;20301;-75
2022/05/25 20:36:08;;;;;;;1.30;1.20;;;;;;;;;;10434699;28;20458;-73
2022/05/25 20:41:10;;;;;;;2.17;1.50;;;;;;;;;;10469142;28;20105;-74
2022/05/25 20:46:13;;;;;;;1.77;1.65;;;;;;;;;;10449791;28;20479;-73
2022/05/25 20:51:14;;;;;;;1.95;1.75;;;;;;;;;;10434754;28;20118;-74
2022/05/25 20:56:14;;;;;;;3.13;1.80;;;;;;;;;;10431300;28;20441;-72
2022/05/25 21:01:15;;;;;;;1.50;1.40;;;;;;;;;;10451712;28;20055;-75
2022/05/25 21:06:17;;;;;;;2.35;1.63;;;;;;;;;;10470108;28;20078;-72
2022/05/25 21:11:17;;;;;;;2.90;2.10;;;;;;;;;;10451409;28;20109;-73
2022/05/25 21:16:18;;;;;;;2.45;1.80;;;;;;;;;;10475430;28;20103;-75
2022/05/25 21:21:20;;;;;;;2.07;1.83;;;;;;;;;;10465769;28;20147;-73
2022/05/25 21:26:20;;;;;;;3.33;1.70;;;;;;;;;;10453248;28;20094;-74
2022/05/25 21:36:39;;;;;;;2.35;1.85;;;;;;;;;;10479219;28;20085;-73
2022/05/25 21:41:41;;;;;;;2.70;1.90;;;;;;;;;;10479042;28;20090;-71
2022/05/25 21:52:00;;;;;;;2.65;1.75;;;;;;;;;;10474563;28;20119;-73
2022/05/25 21:57:04;;;;;;;1.87;1.70;;;;;;;;;;10458286;28;20113;-78
2022/05/25 22:02:04;;;;;;;3.85;1.88;;;;;;;;;;10469565;28;20052;-76
2022/05/25 22:07:07;;;;;;;2.40;1.75;;;;;;;;;;10436905;28;20068;-75
2022/05/25 22:12:12;;;;;;;3.55;1.70;;;;;;;;;;10458449;28;20044;-77
2022/05/25 22:17:15;;;;;;;2.22;1.90;;;;;;;;;;10462820;28;20051;-76
2022/05/25 22:22:15;;;;;;;2.28;2.03;;;;;;;;;;10443465;28;20510;-74
2022/05/25 22:27:16;;;;;;;2.80;1.60;;;;;;;;;;10418399;28;20534;-75
2022/05/25 22:32:16;;;;;;;3.00;1.95;;;;;;;;;;10462688;28;20357;-75
2022/05/25 22:37:17;;;;;;;2.42;1.77;;;;;;;;;;10474421;28;20065;-75
2022/05/25 22:42:17;;;;;;;2.23;2.03;;;;;;;;;;10478182;28;20486;-75
2022/05/25 22:47:21;;;;;;;2.95;1.83;;;;;;;;;;10429151;28;20047;-74
2022/05/25 22:52:23;;;;;;;2.10;1.90;;;;;;;;;;10478456;28;20067;-76
2022/05/25 22:57:23;;;;;;;2.65;2.15;;;;;;;;;;10463545;28;20499;-74
2022/05/25 23:02:24;;;;;;;3.30;2.55;;;;;;;;;;10467098;28;20051;-76
2022/05/25 23:07:24;;;;;;;2.50;2.30;;;;;;;;;;10460141;28;20049;-76
2022/05/25 23:12:25;;;;;;;2.90;2.35;;;;;;;;;;10454843;28;20287;-74
2022/05/25 23:17:26;;;;;;;2.55;2.10;;;;;;;;;;10468669;28;20037;-75
2022/05/25 23:22:26;;;;;;;5.40;2.38;;;;;;;;;;10437723;28;20445;-77
2022/05/25 23:27:28;;;;;;;2.67;2.07;;;;;;;;;;10446672;28;20051;-77
2022/05/25 23:32:28;;;;;;;3.58;2.08;;;;;;;;;;10419330;28;20048;-78
2022/05/25 23:37:31;;;;;;;2.67;2.47;;;;;;;;;;10487287;28;20116;-78
2022/05/25 23:47:52;;;;;;;2.70;2.50;;;;;;;;;;10491362;28;20033;-76
2022/05/25 23:52:52;;;;;;;2.75;2.55;;;;;;;;;;10451024;28;20459;-77
2022/05/25 23:57:53;;;;;;;2.88;2.45;;;;;;;;;;10463184;28;20049;-76
